Excelsior Springs, MO

5:21 PM CDT on August 27, 2016 (GMT -0500)
Clay County Regional | | Change Station
Active Advisory: Flood Warning Active Notice: Record Report, Local Storm Report

Elev 774 ft 39.33 °N, 94.31 °W | Updated 6 minutes ago

Scattered Clouds
Scattered Clouds
84 °F
Feels Like 88 °F
N
8
Wind Variable Wind from SSE

Today
High -- | Low -- °F
--% Chance of Precip.
Yesterday
High -- | Low -- °F
Precip. -- in
Pressure 29.99 in
Visibility 10.0 miles
Clouds Scattered Clouds 3900 ft
Scattered Clouds 4500 ft
Scattered Clouds 10000 ft
Heat Index 88 °F
Dew Point 70 °F
Humidity 62%
Rainfall 0.00 in
Snow Depth Not available.
6:41 AM 7:54 PM
Waning Crescent, 21% visible
METAR KGPH 272215Z AUTO 16007KT 10SM VCTS SCT039 SCT045 SCT100 29/21 A2999 RMK AO2 LTG DSNT ALQS
Pressure 29.99 in
Visibility 10.0 miles
Clouds Scattered Clouds 3900 ft
Scattered Clouds 4500 ft
Scattered Clouds 10000 ft
Heat Index 88 °F
Dew Point 70 °F
Humidity 62%
Rainfall 0.00 in
Snow Depth Not available.
6:41 AM 7:54 PM
Waning Crescent, 21% visible
METAR KGPH 272215Z AUTO 16007KT 10SM VCTS SCT039 SCT045 SCT100 29/21 A2999 RMK AO2 LTG DSNT ALQS

10-Day Weather Forecast

Almanac

Astronomy

Aug. 27, 2016 Rise Set
Actual Time
Civil Twilight
Nautical Twilight
Astronomical Twilight
Moon
Length of Visible Light
Length of Day
Tomorrow will be .
, % of the Moon is Illuminated

Today's Extremes

State Highs State Lows

Community

WunderPhotos

Upload Photos

1,935,455 photos uploaded!

WunderBlog® & News

Nearby

Air Quality

  Air Quality AQ Index Pollutant
Not available.

Snow Depth

Station Depth Elevation

Earthquake Activity

City Distance Mag. Time & Date
Minimum magnitude displayed is 2.5.

Coastal Water Temperatures

Place Temperature

Stations

Nearby Weather Stations

Station Location Temp. Windchill Dew Point Humidity Wind Precip. Elev Updated Type
                   

Watches & Warnings

Flood Warning
Issued: 1:02 PM CDT Aug. 27, 2016 – National Weather Service

The Flood Warning continues for
the Fishing River near Mosby.
* Until Sunday afternoon.
* At 12:54 PM Saturday the stage was 24.5 feet.
* Flood stage is 18.0 feet.
* Minor flooding is occurring and minor flooding is forecast.
* Forecast... the river will continue to fall to below flood stage by
late this afternoon.
* At 18.0 feet... fields near Mosby flood and a low-water crossing on
west Road is impassable.

                       Latest
location fs stage day/time forecast

Fishing River
Mosby 18 24.5 Sat 01 PM 23.3 this afternoon


lat... Lon 3932 9433 3933 9431 3925 9415 3923 9417